Terminal Aerodrome Forecast
Issued by NWS

Home | Current Version | Previous Version | Text Only | Print | Product List | Glossary On
Versions: 1 2 3 4 5 6 7 8 9 10 11 12 13 14 15 16 17 18 19 20
975
FTUS43 KLSX 150259 AAA
TAFCPS
TAF AMD
KCPS 150259Z 1503/1524 16008KT P6SM OVC040
     FM150500 16008KT P6SM OVC030
     FM150700 18008KT 6SM -SHRA VCTS OVC020CB
     FM151700 28012G18KT P6SM OVC015
     FM152200 31012G18KT P6SM SCT030=

USA.gov is the U.S. government's official web portal to all federal, state and local government web resources and services.